Terminal Aerodrome Forecast
Issued by NWS Twin Cities, MN

Home | Current Version | Previous Version | Graphics & Text | Print | Product List | Glossary On
Versions: 1 2 3 4 5 6 7 8 9 10 11 12 13 14 15 16 17 18
000
FTUS43 KMPX 271120
TAFSTC
TAF
KSTC 271120Z 2712/2812 VRB04KT P6SM SCT090
     FM271500 29010G16KT P6SM SKC
     FM272000 28010KT P6SM SCT080
     FM280000 VRB02KT P6SM SKC
     FM281000 11003KT P6SM BKN080=

USA.gov is the U.S. government's official web portal to all federal, state and local government web resources and services.